createdAt,value
2022-12-29T00:02:11.766Z,9.50
2022-12-29T00:07:16.667Z,9.40
2022-12-29T00:12:21.531Z,9.40
2022-12-29T00:17:24.936Z,9.40
2022-12-29T00:22:47.399Z,9.40
2022-12-29T00:28:07.975Z,9.40
2022-12-29T00:33:29.978Z,9.40
2022-12-29T00:38:57.294Z,9.30
2022-12-29T00:44:07.093Z,9.40
2022-12-29T00:49:31.241Z,9.30
2022-12-29T00:54:37.867Z,9.30
2022-12-29T00:59:42.768Z,9.30
2022-12-29T01:04:46.171Z,9.40
2022-12-29T01:10:08.448Z,9.30
2022-12-29T01:15:13.299Z,9.30
2022-12-29T01:20:16.747Z,9.30
2022-12-29T01:25:21.504Z,9.30
2022-12-29T01:30:24.867Z,9.30
2022-12-29T01:35:28.568Z,9.30
2022-12-29T01:40:33.733Z,9.30
2022-12-29T01:45:37.305Z,9.30
2022-12-29T01:50:44.176Z,9.30
2022-12-29T01:55:54.258Z,9.40
2022-12-29T02:00:57.904Z,9.40
2022-12-29T02:06:06.534Z,9.40
2022-12-29T02:11:12.770Z,9.40
2022-12-29T02:16:33.820Z,9.50
2022-12-29T02:22:02.351Z,9.40
2022-12-29T02:27:31.173Z,9.40
2022-12-29T02:32:47.795Z,9.30
2022-12-29T02:38:01.524Z,9.30
2022-12-29T02:43:12.693Z,9.30
2022-12-29T02:48:22.713Z,9.30
2022-12-29T02:53:41.043Z,9.40
2022-12-29T02:58:44.593Z,9.30
2022-12-29T03:04:05.908Z,9.30
2022-12-29T03:09:22.854Z,9.20
2022-12-29T03:14:48.923Z,9.10
2022-12-29T03:19:56.910Z,9.10
2022-12-29T03:25:04.755Z,9.00
2022-12-29T03:30:10.069Z,9.00
2022-12-29T03:35:18.427Z,9.00
2022-12-29T03:40:24.976Z,9.00
2022-12-29T03:45:28.397Z,9.00
2022-12-29T03:50:33.123Z,9.00
2022-12-29T03:55:36.576Z,9.10
2022-12-29T04:00:40.029Z,9.10
2022-12-29T04:05:45.013Z,9.10
2022-12-29T04:10:49.906Z,9.10
2022-12-29T04:15:53.464Z,9.20
2022-12-29T04:21:04.993Z,9.30
2022-12-29T04:26:10.036Z,9.30
2022-12-29T04:31:13.675Z,9.30
2022-12-29T04:36:18.509Z,9.30
2022-12-29T04:41:22.241Z,9.30
2022-12-29T04:46:25.799Z,9.30
2022-12-29T04:51:30.688Z,9.30
2022-12-29T04:56:34.125Z,9.30
2022-12-29T05:01:37.944Z,9.30
2022-12-29T05:06:42.717Z,9.30
2022-12-29T05:11:46.087Z,9.30
2022-12-29T05:16:49.696Z,9.40
2022-12-29T05:21:55.447Z,9.40
2022-12-29T05:26:59.347Z,9.40
2022-12-29T05:32:02.695Z,9.30
2022-12-29T05:37:07.466Z,9.30
2022-12-29T05:42:10.860Z,9.30
2022-12-29T05:47:14.702Z,9.30
2022-12-29T05:52:19.494Z,9.30
2022-12-29T05:57:22.970Z,9.30
2022-12-29T06:02:26.505Z,9.30
2022-12-29T06:07:31.354Z,9.30
2022-12-29T06:12:34.770Z,9.30
2022-12-29T06:17:38.300Z,9.20
2022-12-29T06:22:43.121Z,9.20
2022-12-29T06:27:46.742Z,9.20
2022-12-29T06:32:50.167Z,9.20
2022-12-29T06:37:55.056Z,9.20
2022-12-29T06:42:58.689Z,9.20
2022-12-29T06:48:02.480Z,9.30
2022-12-29T06:53:07.546Z,9.30
2022-12-29T06:58:11.108Z,9.30
2022-12-29T07:03:14.549Z,9.30
2022-12-29T07:08:19.317Z,9.30
2022-12-29T07:13:22.855Z,9.30
2022-12-29T07:18:26.274Z,9.30
2022-12-29T07:23:31.166Z,9.40
2022-12-29T07:28:35.993Z,9.40
2022-12-29T07:33:39.433Z,9.40
2022-12-29T07:38:44.446Z,9.40
2022-12-29T07:43:49.676Z,9.40
2022-12-29T07:48:53.258Z,9.40
2022-12-29T07:53:58.049Z,9.50
2022-12-29T07:59:01.399Z,9.50
2022-12-29T08:04:05.057Z,9.50
2022-12-29T08:09:15.121Z,9.60
2022-12-29T08:14:21.766Z,9.60
2022-12-29T08:19:26.939Z,9.60
2022-12-29T08:24:31.909Z,9.70
2022-12-29T08:29:35.366Z,9.70
2022-12-29T08:34:38.868Z,9.70
2022-12-29T08:39:43.995Z,9.80
2022-12-29T08:44:47.373Z,9.90
2022-12-29T08:49:51.084Z,10.00
2022-12-29T08:54:55.944Z,10.10
2022-12-29T08:59:59.363Z,10.10
2022-12-29T09:05:02.791Z,10.10
2022-12-29T09:10:08.628Z,10.20
2022-12-29T09:15:13.145Z,10.20
2022-12-29T09:20:18.796Z,10.20
2022-12-29T09:25:25.340Z,10.30
2022-12-29T09:30:28.759Z,10.30
2022-12-29T09:35:32.255Z,10.30
2022-12-29T09:40:37.560Z,10.30
2022-12-29T09:45:46.672Z,10.40
2022-12-29T09:50:54.874Z,10.50
2022-12-29T09:56:02.549Z,10.50
2022-12-29T10:01:08.814Z,10.50
2022-12-29T10:06:15.974Z,10.60
2022-12-29T10:11:33.422Z,10.70
2022-12-29T10:16:44.814Z,10.80
2022-12-29T10:22:01.723Z,10.80
2022-12-29T10:27:12.305Z,10.90
2022-12-29T10:32:26.069Z,11.00
2022-12-29T10:37:36.582Z,11.20
2022-12-29T10:42:45.152Z,11.20
2022-12-29T10:47:57.349Z,11.30
2022-12-29T10:53:04.851Z,11.40
2022-12-29T10:58:14.411Z,11.50
2022-12-29T11:03:52.768Z,11.50
2022-12-29T11:08:59.742Z,11.60
2022-12-29T11:14:14.382Z,11.70
2022-12-29T11:19:25.307Z,11.80
2022-12-29T11:24:30.416Z,11.90
2022-12-29T11:29:42.261Z,12.00
2022-12-29T11:34:46.315Z,12.10
2022-12-29T11:39:54.414Z,12.10
2022-12-29T11:45:10.715Z,12.20
2022-12-29T11:50:20.968Z,12.20
2022-12-29T11:55:28.091Z,12.30
2022-12-29T12:00:36.446Z,12.30
2022-12-29T12:05:45.869Z,12.30
2022-12-29T12:10:56.645Z,12.40
2022-12-29T12:16:08.559Z,12.30
2022-12-29T12:21:20.663Z,12.40
2022-12-29T12:26:32.409Z,12.40
2022-12-29T12:31:47.514Z,12.40
2022-12-29T12:37:04.849Z,12.40
2022-12-29T12:42:20.281Z,12.40
2022-12-29T12:47:52.021Z,12.40
2022-12-29T12:53:10.970Z,12.30
2022-12-29T12:58:22.257Z,12.40
2022-12-29T13:03:40.733Z,12.50
2022-12-29T13:09:18.888Z,12.60
2022-12-29T13:14:33.431Z,12.60
2022-12-29T13:19:43.504Z,12.70
2022-12-29T13:25:00.372Z,12.80
2022-12-29T13:30:07.455Z,12.90
2022-12-29T13:35:29.278Z,13.00
2022-12-29T13:40:39.685Z,13.10
2022-12-29T13:45:45.755Z,13.20
2022-12-29T13:50:54.697Z,13.30
2022-12-29T13:56:05.635Z,13.40
2022-12-29T14:01:15.299Z,13.40
2022-12-29T14:06:26.952Z,13.30
2022-12-29T14:11:35.944Z,13.10
2022-12-29T14:16:39.491Z,12.80
2022-12-29T14:21:53.882Z,12.60
2022-12-29T14:26:57.284Z,12.40
2022-12-29T14:32:00.957Z,12.30
2022-12-29T14:37:06.320Z,12.10
2022-12-29T14:42:16.244Z,12.00
2022-12-29T14:47:24.674Z,11.90
2022-12-29T14:52:30.786Z,11.80
2022-12-29T14:57:41.340Z,11.70
2022-12-29T15:02:50.056Z,11.70
2022-12-29T15:07:55.677Z,11.60
2022-12-29T15:13:05.576Z,11.40
2022-12-29T15:18:27.230Z,11.30
2022-12-29T15:23:35.550Z,11.20
2022-12-29T15:28:41.452Z,11.10
2022-12-29T15:33:48.374Z,11.00
2022-12-29T15:38:53.985Z,10.90
2022-12-29T15:44:06.915Z,10.80
2022-12-29T15:49:11.252Z,10.60
2022-12-29T15:54:20.092Z,10.60
2022-12-29T15:59:27.505Z,10.50
2022-12-29T16:04:48.581Z,10.40
2022-12-29T16:10:01.240Z,10.30
2022-12-29T16:15:07.241Z,10.30
2022-12-29T16:20:19.853Z,10.30
2022-12-29T16:25:27.385Z,10.30
2022-12-29T16:30:34.180Z,10.30
2022-12-29T16:35:47.191Z,10.20
2022-12-29T16:40:55.975Z,10.20
2022-12-29T16:46:27.706Z,10.20
2022-12-29T16:51:33.627Z,10.20
2022-12-29T16:56:39.746Z,10.20
2022-12-29T17:01:43.967Z,10.20
2022-12-29T17:06:47.986Z,10.20
2022-12-29T17:12:03.982Z,10.20
2022-12-29T17:17:17.299Z,10.20
2022-12-29T17:22:25.169Z,10.20
2022-12-29T17:27:33.917Z,10.30
2022-12-29T17:32:37.349Z,10.20
2022-12-29T17:37:40.875Z,10.20
2022-12-29T17:42:47.591Z,10.30
2022-12-29T17:47:51.034Z,10.30
2022-12-29T17:53:00.652Z,10.30
2022-12-29T17:58:17.486Z,10.20
2022-12-29T18:03:25.972Z,10.30
2022-12-29T18:08:29.879Z,10.30
2022-12-29T18:13:45.470Z,10.30
2022-12-29T18:18:49.963Z,10.30
2022-12-29T18:23:53.631Z,10.30
2022-12-29T18:28:59.217Z,10.30
2022-12-29T18:34:08.452Z,10.30
2022-12-29T18:39:12.983Z,10.20
2022-12-29T18:44:17.713Z,10.20
2022-12-29T18:49:21.178Z,10.20
2022-12-29T18:54:29.770Z,10.20
2022-12-29T18:59:34.779Z,10.20
2022-12-29T19:04:38.370Z,10.20
2022-12-29T19:09:42.358Z,10.20
2022-12-29T19:14:47.212Z,10.20
2022-12-29T19:19:50.614Z,10.10
2022-12-29T19:24:59.801Z,10.10
2022-12-29T19:30:05.938Z,10.10
2022-12-29T19:35:10.595Z,10.10
2022-12-29T19:40:16.202Z,10.00
2022-12-29T19:45:21.503Z,10.00
2022-12-29T19:50:25.174Z,10.00
2022-12-29T19:55:28.686Z,10.00
2022-12-29T20:00:33.759Z,10.00
2022-12-29T20:05:37.517Z,10.00
2022-12-29T20:10:41.516Z,10.00
2022-12-29T20:15:46.351Z,10.00
2022-12-29T20:20:49.705Z,10.00
2022-12-29T20:25:57.258Z,10.00
2022-12-29T20:31:06.436Z,10.10
2022-12-29T20:36:12.473Z,10.10
2022-12-29T20:41:16.614Z,10.10
2022-12-29T20:46:25.193Z,10.10
2022-12-29T20:51:59.186Z,10.10
2022-12-29T20:56:53.839Z,10.10
2022-12-29T21:01:59.026Z,10.00
2022-12-29T21:07:02.538Z,10.00
2022-12-29T21:12:06.995Z,9.90
2022-12-29T21:17:11.789Z,9.90
2022-12-29T21:22:15.236Z,9.90
2022-12-29T21:27:18.665Z,9.90
2022-12-29T21:32:23.671Z,9.80
2022-12-29T21:37:27.010Z,9.80
2022-12-29T21:42:30.401Z,9.70
2022-12-29T21:47:49.782Z,9.70
2022-12-29T21:52:53.191Z,9.70
2022-12-29T21:58:13.684Z,9.70
2022-12-29T22:03:36.033Z,9.70
2022-12-29T22:08:58.150Z,9.70
2022-12-29T22:14:02.245Z,9.70
2022-12-29T22:19:07.932Z,9.80
2022-12-29T22:24:11.316Z,9.80
2022-12-29T22:29:14.976Z,9.80
2022-12-29T22:34:20.764Z,9.80
2022-12-29T22:39:25.159Z,9.80
2022-12-29T22:44:28.576Z,9.80
2022-12-29T22:49:33.707Z,9.80
2022-12-29T22:54:37.301Z,9.70
2022-12-29T22:59:41.049Z,9.80
2022-12-29T23:05:03.945Z,9.80
2022-12-29T23:10:09.220Z,9.80
2022-12-29T23:15:13.589Z,9.90
2022-12-29T23:20:18.602Z,10.00
2022-12-29T23:25:22.016Z,10.00
2022-12-29T23:30:25.426Z,10.10
2022-12-29T23:35:30.420Z,10.10
2022-12-29T23:40:34.801Z,10.20
2022-12-29T23:45:39.164Z,10.20
2022-12-29T23:50:44.190Z,10.20
2022-12-29T23:55:54.759Z,10.10
